Time;durP1;ratioP1;P1;durP2;ratioP2;P2;SDS_P1;SDS_P2;PMS_P1;PMS_P2;Temp;Humidity;BMP_temperature;BMP_pressure;BME280_temperature;BME280_humidity;BME280_pressure;Samples;Min_cycle;Max_cycle;Signal;HPM_P1;HPM_P2
2021/05/12 00:00:53;;;;;;;31.00;4.90;;;;;;;;;;5069543;28;20031;-64
2021/05/12 00:03:20;;;;;;;23.95;4.95;;;;;;;;;;5068738;28;20082;-66
2021/05/12 00:05:47;;;;;;;20.90;4.18;;;;;;;;;;5069693;28;20098;-66
2021/05/12 00:08:14;;;;;;;24.45;5.05;;;;;;;;;;5062999;28;20024;-61
2021/05/12 00:10:41;;;;;;;28.40;5.03;;;;;;;;;;5068524;28;20030;-66
2021/05/12 00:13:08;;;;;;;28.70;4.63;;;;;;;;;;5067990;28;20547;-62
2021/05/12 00:15:35;;;;;;;23.38;5.70;;;;;;;;;;5062202;28;20024;-65
2021/05/12 00:18:10;;;;;;;30.48;5.13;;;;;;;;;;5070338;28;20017;-68
2021/05/12 00:20:37;;;;;;;48.47;4.85;;;;;;;;;;5067988;28;20024;-67
2021/05/12 00:23:08;;;;;;;28.80;5.32;;;;;;;;;;5066206;28;20044;-63
2021/05/12 00:25:35;;;;;;;36.80;4.97;;;;;;;;;;5068618;28;20033;-63
2021/05/12 00:28:02;;;;;;;29.17;4.53;;;;;;;;;;5066265;28;20028;-63
2021/05/12 00:30:29;;;;;;;18.23;3.88;;;;;;;;;;5070762;28;20060;-62
2021/05/12 00:32:56;;;;;;;21.83;4.95;;;;;;;;;;5071327;28;20028;-64
2021/05/12 00:35:23;;;;;;;16.90;4.05;;;;;;;;;;5065794;28;20032;-64
2021/05/12 00:37:50;;;;;;;30.63;4.60;;;;;;;;;;5067301;28;20020;-66
2021/05/12 00:40:18;;;;;;;21.73;4.18;;;;;;;;;;5068859;28;20028;-60
2021/05/12 00:42:45;;;;;;;20.73;4.40;;;;;;;;;;5069710;28;20037;-63
2021/05/12 00:45:13;;;;;;;21.77;4.32;;;;;;;;;;5070081;28;20072;-64
2021/05/12 00:47:41;;;;;;;19.60;4.18;;;;;;;;;;5063255;28;20021;-65
2021/05/12 00:50:09;;;;;;;18.08;4.00;;;;;;;;;;5070617;28;20064;-61
2021/05/12 00:52:36;;;;;;;13.63;3.97;;;;;;;;;;5067460;28;20111;-61
2021/05/12 00:55:03;;;;;;;17.75;3.88;;;;;;;;;;5068447;28;20448;-57
2021/05/12 00:57:30;;;;;;;24.70;3.63;;;;;;;;;;5069737;28;20013;-60
2021/05/12 00:59:57;;;;;;;19.90;3.08;;;;;;;;;;5067575;28;20036;-61
2021/05/12 01:02:24;;;;;;;13.43;3.88;;;;;;;;;;5071552;28;20107;-63
2021/05/12 01:04:51;;;;;;;19.33;3.63;;;;;;;;;;5068211;28;20104;-59
2021/05/12 01:07:18;;;;;;;21.88;3.67;;;;;;;;;;5064927;28;20025;-62
2021/05/12 01:09:51;;;;;;;19.95;3.92;;;;;;;;;;5068810;28;20037;-61
2021/05/12 01:12:17;;;;;;;;;;;;;;;;;;5069007;28;20021;-63
2021/05/12 01:14:44;;;;;;;11.95;3.10;;;;;;;;;;5053321;28;20030;-62
2021/05/12 01:17:11;;;;;;;14.57;3.47;;;;;;;;;;5052594;28;20028;-59
2021/05/12 01:19:39;;;;;;;18.05;3.00;;;;;;;;;;5059250;28;20463;-64
2021/05/12 01:22:06;;;;;;;13.60;2.67;;;;;;;;;;5064118;28;20064;-60
2021/05/12 01:24:33;;;;;;;10.95;3.00;;;;;;;;;;5062373;28;20017;-63
2021/05/12 01:27:00;;;;;;;9.77;2.63;;;;;;;;;;5062980;28;20024;-63
2021/05/12 01:29:27;;;;;;;9.90;2.90;;;;;;;;;;5069087;28;20395;-59
2021/05/12 01:31:55;;;;;;;10.70;2.88;;;;;;;;;;5061438;28;20066;-62
2021/05/12 01:34:22;;;;;;;16.75;3.63;;;;;;;;;;5067104;28;20549;-58
2021/05/12 01:36:50;;;;;;;13.23;3.05;;;;;;;;;;5061875;28;20025;-62
2021/05/12 01:39:18;;;;;;;9.90;2.45;;;;;;;;;;5059589;28;20045;-62
2021/05/12 01:41:45;;;;;;;8.95;2.50;;;;;;;;;;5060559;28;20027;-62
2021/05/12 01:44:13;;;;;;;10.43;2.53;;;;;;;;;;5066105;28;20020;-57
2021/05/12 01:46:41;;;;;;;7.40;2.53;;;;;;;;;;5063710;28;20020;-64
2021/05/12 01:49:08;;;;;;;8.68;2.10;;;;;;;;;;5069039;28;20053;-59
2021/05/12 01:51:36;;;;;;;13.63;2.38;;;;;;;;;;5053611;28;20029;-55
2021/05/12 01:54:06;;;;;;;13.52;2.42;;;;;;;;;;5054059;28;20017;-58
2021/05/12 01:56:33;;;;;;;14.60;2.42;;;;;;;;;;5054009;28;20029;-63
2021/05/12 01:59:00;;;;;;;8.27;2.00;;;;;;;;;;5053827;28;20393;-59
2021/05/12 02:01:27;;;;;;;9.90;2.30;;;;;;;;;;5053900;28;20070;-62
2021/05/12 02:03:54;;;;;;;12.05;2.50;;;;;;;;;;5053732;28;20058;-63
2021/05/12 02:06:21;;;;;;;8.70;2.30;;;;;;;;;;5053231;28;20025;-65
2021/05/12 02:08:48;;;;;;;7.95;2.03;;;;;;;;;;5051299;28;20036;-64
2021/05/12 02:11:15;;;;;;;9.52;1.85;;;;;;;;;;5065491;28;20035;-65
2021/05/12 02:13:42;;;;;;;11.27;2.40;;;;;;;;;;5052747;28;20473;-63
2021/05/12 02:16:09;;;;;;;10.40;2.08;;;;;;;;;;5053198;28;20449;-62
2021/05/12 02:18:36;;;;;;;6.38;1.80;;;;;;;;;;5052383;28;20037;-64
2021/05/12 02:21:03;;;;;;;7.57;2.50;;;;;;;;;;5053109;28;20560;-63
2021/05/12 02:23:31;;;;;;;8.90;1.73;;;;;;;;;;5052210;28;20079;-64
2021/05/12 02:25:58;;;;;;;10.90;2.38;;;;;;;;;;5052995;28;20492;-63
2021/05/12 02:28:26;;;;;;;10.20;2.22;;;;;;;;;;5052653;28;20088;-62
2021/05/12 02:30:53;;;;;;;9.90;1.77;;;;;;;;;;5052916;28;20021;-64
2021/05/12 02:33:20;;;;;;;7.78;2.03;;;;;;;;;;5052408;28;20024;-62
2021/05/12 02:35:47;;;;;;;12.57;1.77;;;;;;;;;;5052647;28;20017;-65
2021/05/12 02:38:14;;;;;;;10.55;2.30;;;;;;;;;;5052276;28;20090;-64
2021/05/12 02:40:41;;;;;;;5.50;1.65;;;;;;;;;;5052725;28;20024;-65
2021/05/12 02:43:09;;;;;;;5.53;1.55;;;;;;;;;;5052536;28;20533;-64
2021/05/12 02:45:36;;;;;;;7.15;1.83;;;;;;;;;;5052595;28;20028;-63
2021/05/12 02:48:04;;;;;;;8.13;1.77;;;;;;;;;;5052249;28;20017;-62
2021/05/12 02:50:32;;;;;;;7.30;1.70;;;;;;;;;;5052435;28;20082;-65
2021/05/12 02:53:00;;;;;;;7.10;1.88;;;;;;;;;;5052626;28;20100;-65
2021/05/12 02:55:28;;;;;;;6.50;1.58;;;;;;;;;;5051833;28;20021;-65
2021/05/12 02:57:56;;;;;;;7.22;1.70;;;;;;;;;;5052486;28;20021;-64
2021/05/12 03:00:24;;;;;;;8.10;1.60;;;;;;;;;;5051875;28;20518;-62
2021/05/12 03:02:51;;;;;;;7.15;1.77;;;;;;;;;;5052393;28;20029;-64
2021/05/12 03:05:18;;;;;;;8.50;1.70;;;;;;;;;;5051693;28;20044;-64
2021/05/12 03:07:46;;;;;;;8.20;1.67;;;;;;;;;;5052365;28;20028;-62
2021/05/12 03:10:14;;;;;;;6.93;1.50;;;;;;;;;;5051644;28;20473;-64
2021/05/12 03:12:41;;;;;;;8.63;1.55;;;;;;;;;;5052220;28;20424;-58
2021/05/12 03:15:10;;;;;;;5.97;1.45;;;;;;;;;;5051757;28;20047;-60
2021/05/12 03:17:37;;;;;;;8.60;1.70;;;;;;;;;;5050682;28;20492;-58
2021/05/12 03:20:05;;;;;;;5.93;1.60;;;;;;;;;;5050606;28;20505;-59
2021/05/12 03:22:32;;;;;;;7.18;1.55;;;;;;;;;;5051967;28;20045;-59
2021/05/12 03:24:59;;;;;;;4.85;1.60;;;;;;;;;;5051435;28;20357;-62
2021/05/12 03:27:26;;;;;;;4.07;1.52;;;;;;;;;;5052080;28;20384;-61
2021/05/12 03:29:53;;;;;;;6.22;1.30;;;;;;;;;;5051756;28;20096;-58
2021/05/12 03:32:20;;;;;;;6.57;1.23;;;;;;;;;;5051877;28;20036;-60
2021/05/12 03:34:47;;;;;;;5.97;1.40;;;;;;;;;;5051665;28;20021;-57
2021/05/12 03:37:14;;;;;;;6.70;1.20;;;;;;;;;;5051656;28;20020;-60
2021/05/12 03:39:41;;;;;;;4.18;1.33;;;;;;;;;;5050582;28;20033;-58
2021/05/12 03:42:08;;;;;;;6.28;1.38;;;;;;;;;;5051447;28;20107;-60
2021/05/12 03:44:35;;;;;;;3.15;0.90;;;;;;;;;;5052064;28;20036;-57
2021/05/12 03:47:02;;;;;;;3.42;1.40;;;;;;;;;;5051217;28;20037;-60
2021/05/12 03:49:30;;;;;;;6.25;1.30;;;;;;;;;;5051691;28;20029;-61
2021/05/12 03:51:57;;;;;;;5.45;1.27;;;;;;;;;;5051512;28;20052;-58
2021/05/12 03:54:26;;;;;;;4.40;1.20;;;;;;;;;;5051807;28;20100;-63
2021/05/12 03:56:54;;;;;;;4.32;1.08;;;;;;;;;;5051069;28;20021;-63
2021/05/12 03:59:22;;;;;;;4.05;1.10;;;;;;;;;;5051957;28;20068;-65
2021/05/12 04:01:49;;;;;;;6.65;1.10;;;;;;;;;;5051134;28;20381;-64
2021/05/12 04:04:17;;;;;;;6.30;0.95;;;;;;;;;;5051739;28;20048;-64
2021/05/12 04:06:45;;;;;;;6.40;1.27;;;;;;;;;;5051043;28;20028;-64
2021/05/12 04:09:12;;;;;;;3.83;1.00;;;;;;;;;;5051667;28;20027;-64
2021/05/12 04:11:41;;;;;;;5.63;1.73;;;;;;;;;;5051248;28;20055;-66
2021/05/12 04:14:08;;;;;;;4.97;1.30;;;;;;;;;;5050364;28;20028;-64
2021/05/12 04:16:35;;;;;;;4.97;0.80;;;;;;;;;;5051028;28;20032;-63
2021/05/12 04:19:03;;;;;;;3.17;1.05;;;;;;;;;;5050223;28;20419;-62
2021/05/12 04:21:33;;;;;;;5.70;1.20;;;;;;;;;;5051212;28;20381;-65
2021/05/12 04:24:00;;;;;;;4.90;1.13;;;;;;;;;;5051216;28;20518;-64
2021/05/12 04:26:27;;;;;;;3.92;1.00;;;;;;;;;;5051205;28;20396;-64
2021/05/12 04:28:54;;;;;;;5.32;0.80;;;;;;;;;;5051091;28;20551;-65
2021/05/12 04:31:21;;;;;;;5.10;1.10;;;;;;;;;;5054473;28;20070;-64
2021/05/12 04:33:48;;;;;;;4.88;0.95;;;;;;;;;;5054578;28;20032;-63
2021/05/12 04:36:15;;;;;;;4.40;1.00;;;;;;;;;;5054798;28;20115;-65
2021/05/12 04:38:42;;;;;;;6.93;1.17;;;;;;;;;;5054564;28;20021;-64
2021/05/12 04:41:09;;;;;;;5.10;1.15;;;;;;;;;;5055076;28;20078;-65
2021/05/12 04:43:36;;;;;;;3.70;0.93;;;;;;;;;;5054520;28;20489;-61
2021/05/12 04:46:03;;;;;;;3.25;0.80;;;;;;;;;;5054743;28;20112;-65
2021/05/12 04:48:31;;;;;;;3.67;1.00;;;;;;;;;;5054401;28;20024;-62
2021/05/12 04:50:58;;;;;;;3.78;0.80;;;;;;;;;;5054679;28;20112;-64
2021/05/12 04:53:26;;;;;;;2.08;0.90;;;;;;;;;;5054367;28;20033;-59
2021/05/12 04:55:53;;;;;;;3.53;1.10;;;;;;;;;;5054617;28;20049;-64
2021/05/12 04:58:20;;;;;;;3.45;0.80;;;;;;;;;;5054585;28;20020;-64
2021/05/12 05:00:47;;;;;;;4.88;0.80;;;;;;;;;;5054222;28;20017;-63
2021/05/12 05:03:14;;;;;;;2.92;1.10;;;;;;;;;;5054677;28;20041;-62
2021/05/12 05:05:42;;;;;;;3.95;0.80;;;;;;;;;;5054012;28;20017;-61
2021/05/12 05:08:08;;;;;;;3.70;1.05;;;;;;;;;;5054537;28;20013;-66
2021/05/12 05:10:35;;;;;;;5.05;1.00;;;;;;;;;;5052573;28;20085;-65
2021/05/12 05:13:02;;;;;;;4.20;1.10;;;;;;;;;;5053352;28;20473;-64
2021/05/12 05:15:29;;;;;;;3.85;0.80;;;;;;;;;;5053831;28;20025;-63
2021/05/12 05:17:57;;;;;;;3.10;0.80;;;;;;;;;;5052844;28;20044;-65
2021/05/12 05:20:26;;;;;;;2.08;0.80;;;;;;;;;;5053700;28;20028;-66
2021/05/12 05:22:53;;;;;;;3.85;0.88;;;;;;;;;;5053989;28;20105;-61
2021/05/12 05:25:20;;;;;;;2.13;0.98;;;;;;;;;;5052703;28;20052;-63
2021/05/12 05:27:47;;;;;;;1.45;0.77;;;;;;;;;;5054000;28;20545;-64
2021/05/12 05:30:14;;;;;;;3.33;0.90;;;;;;;;;;5053471;28;20028;-65
2021/05/12 05:32:41;;;;;;;3.03;0.90;;;;;;;;;;5054098;28;20025;-62
2021/05/12 05:35:08;;;;;;;2.67;0.88;;;;;;;;;;5053621;28;20028;-61
2021/05/12 05:37:35;;;;;;;5.63;1.40;;;;;;;;;;5052373;28;20025;-61
2021/05/12 05:40:02;;;;;;;1.88;0.73;;;;;;;;;;5054230;28;20178;-64
2021/05/12 05:42:29;;;;;;;2.58;0.70;;;;;;;;;;5052356;28;20092;-64
2021/05/12 05:44:56;;;;;;;2.22;0.75;;;;;;;;;;5053831;28;20032;-63
2021/05/12 05:47:23;;;;;;;1.92;0.90;;;;;;;;;;5053180;28;20029;-58
2021/05/12 05:49:50;;;;;;;2.28;0.70;;;;;;;;;;5053780;28;20021;-57
2021/05/12 05:52:17;;;;;;;4.13;0.80;;;;;;;;;;5053172;28;20412;-58
2021/05/12 05:54:44;;;;;;;3.22;0.93;;;;;;;;;;5053930;28;20103;-59
2021/05/12 05:57:15;;;;;;;2.25;0.80;;;;;;;;;;5052939;28;20032;-58
2021/05/12 05:59:43;;;;;;;2.88;0.88;;;;;;;;;;5053257;28;20485;-57
2021/05/12 06:02:10;;;;;;;2.55;0.70;;;;;;;;;;5053197;28;20027;-59
2021/05/12 06:04:37;;;;;;;2.60;0.73;;;;;;;;;;5053463;28;20060;-60
2021/05/12 06:07:04;;;;;;;3.53;0.77;;;;;;;;;;5052785;28;20017;-58
2021/05/12 06:09:31;;;;;;;2.20;0.60;;;;;;;;;;5053514;28;20452;-59
2021/05/12 06:11:58;;;;;;;3.30;0.65;;;;;;;;;;5051481;28;20083;-57
2021/05/12 06:14:25;;;;;;;1.67;0.60;;;;;;;;;;5053137;28;20029;-58
2021/05/12 06:16:52;;;;;;;3.17;0.80;;;;;;;;;;5053203;28;20416;-59
2021/05/12 06:19:19;;;;;;;3.53;0.70;;;;;;;;;;5052501;28;20037;-58
2021/05/12 06:21:46;;;;;;;3.55;0.70;;;;;;;;;;5052914;28;20025;-62
2021/05/12 06:24:13;;;;;;;3.50;0.80;;;;;;;;;;5051596;28;20091;-66
2021/05/12 06:26:40;;;;;;;2.05;0.93;;;;;;;;;;5053015;28;20025;-65
2021/05/12 06:29:07;;;;;;;3.10;0.88;;;;;;;;;;5052212;28;20509;-65
2021/05/12 06:31:35;;;;;;;3.17;0.80;;;;;;;;;;5053192;28;20025;-65
2021/05/12 06:34:02;;;;;;;2.55;0.63;;;;;;;;;;5052390;28;20377;-64
2021/05/12 06:36:29;;;;;;;3.88;0.93;;;;;;;;;;5052665;28;20040;-65
2021/05/12 06:38:56;;;;;;;1.15;0.70;;;;;;;;;;5052256;28;20032;-62
2021/05/12 06:41:23;;;;;;;3.25;0.73;;;;;;;;;;5052899;28;20017;-65
2021/05/12 06:43:51;;;;;;;2.58;0.68;;;;;;;;;;5052118;28;20027;-64
2021/05/12 06:46:18;;;;;;;1.75;0.70;;;;;;;;;;5052796;28;20017;-63
2021/05/12 06:48:45;;;;;;;2.20;0.90;;;;;;;;;;5052185;28;20045;-63
2021/05/12 06:51:13;;;;;;;3.67;0.85;;;;;;;;;;5052645;28;20017;-65
2021/05/12 06:53:40;;;;;;;1.48;0.70;;;;;;;;;;5051749;28;20025;-65
2021/05/12 06:56:07;;;;;;;1.48;0.70;;;;;;;;;;5052597;28;20029;-63
2021/05/12 06:58:34;;;;;;;2.75;0.80;;;;;;;;;;5051894;28;20362;-62
2021/05/12 07:01:02;;;;;;;2.90;0.70;;;;;;;;;;5052224;28;20409;-64
2021/05/12 07:03:29;;;;;;;3.30;0.63;;;;;;;;;;5052578;28;20066;-65
2021/05/12 07:05:56;;;;;;;1.30;0.52;;;;;;;;;;5051955;28;20033;-63
2021/05/12 07:08:23;;;;;;;2.78;0.60;;;;;;;;;;5052248;28;20031;-62
2021/05/12 07:10:50;;;;;;;2.33;0.63;;;;;;;;;;5051955;28;20389;-64
2021/05/12 07:13:18;;;;;;;3.28;0.80;;;;;;;;;;5052106;28;20036;-62
2021/05/12 07:15:45;;;;;;;2.95;0.57;;;;;;;;;;5051853;28;20029;-64
2021/05/12 07:18:12;;;;;;;2.30;0.77;;;;;;;;;;5052076;28;20021;-64
2021/05/12 07:20:39;;;;;;;3.03;0.60;;;;;;;;;;5051611;28;20388;-65
2021/05/12 07:23:10;;;;;;;2.92;0.70;;;;;;;;;;5051945;28;20512;-63
2021/05/12 07:25:37;;;;;;;3.25;0.73;;;;;;;;;;5051636;28;20032;-64
2021/05/12 07:28:05;;;;;;;7.00;0.70;;;;;;;;;;5052079;28;20021;-62
2021/05/12 07:30:32;;;;;;;3.47;0.70;;;;;;;;;;5051527;28;20025;-65
2021/05/12 07:32:59;;;;;;;0.90;0.50;;;;;;;;;;5052344;28;20053;-62
2021/05/12 07:35:26;;;;;;;2.00;0.52;;;;;;;;;;5051562;28;20389;-65
2021/05/12 07:37:53;;;;;;;1.77;0.43;;;;;;;;;;5052008;28;20028;-65
2021/05/12 07:40:20;;;;;;;2.22;0.50;;;;;;;;;;5050351;28;20064;-63
2021/05/12 07:42:47;;;;;;;1.33;0.50;;;;;;;;;;5050285;28;20789;-64
2021/05/12 07:45:15;;;;;;;1.67;0.40;;;;;;;;;;5051867;28;20025;-63
2021/05/12 07:47:41;;;;;;;1.90;0.40;;;;;;;;;;5051614;28;20017;-63
2021/05/12 07:50:11;;;;;;;3.05;0.75;;;;;;;;;;5051894;28;20104;-64
2021/05/12 07:52:38;;;;;;;2.13;0.63;;;;;;;;;;5051328;28;20036;-65
2021/05/12 07:55:06;;;;;;;3.17;0.40;;;;;;;;;;5051866;28;20024;-64
2021/05/12 07:57:33;;;;;;;3.45;0.68;;;;;;;;;;5050071;28;20029;-64
2021/05/12 08:00:02;;;;;;;2.80;0.52;;;;;;;;;;5051589;28;20535;-64
2021/05/12 08:02:29;;;;;;;3.67;0.50;;;;;;;;;;5051120;28;20033;-65
2021/05/12 08:04:56;;;;;;;1.85;0.60;;;;;;;;;;5052595;28;20061;-63
2021/05/12 08:07:23;;;;;;;3.40;0.60;;;;;;;;;;5055314;28;20021;-64
2021/05/12 08:09:50;;;;;;;1.95;0.40;;;;;;;;;;5055327;28;20509;-63
2021/05/12 08:12:18;;;;;;;1.65;0.60;;;;;;;;;;5054027;28;20083;-64
2021/05/12 08:14:45;;;;;;;2.15;0.60;;;;;;;;;;5055599;28;20017;-63
2021/05/12 08:17:12;;;;;;;3.78;0.68;;;;;;;;;;5055029;28;20021;-63
2021/05/12 08:19:39;;;;;;;3.38;0.82;;;;;;;;;;5055491;28;20401;-65
2021/05/12 08:22:07;;;;;;;1.92;0.55;;;;;;;;;;5054834;28;20119;-56
2021/05/12 08:24:34;;;;;;;2.42;0.60;;;;;;;;;;5055095;28;20697;-57
2021/05/12 08:27:02;;;;;;;2.17;0.60;;;;;;;;;;5055549;28;20029;-58
2021/05/12 08:29:30;;;;;;;0.95;0.47;;;;;;;;;;5054539;28;20021;-59
2021/05/12 08:31:58;;;;;;;3.25;0.57;;;;;;;;;;5055216;28;20045;-59
2021/05/12 08:34:25;;;;;;;1.48;0.47;;;;;;;;;;5054853;28;20053;-59
2021/05/12 08:36:52;;;;;;;2.33;0.80;;;;;;;;;;5055124;28;20048;-59
2021/05/12 08:39:19;;;;;;;3.63;0.68;;;;;;;;;;5054558;28;20040;-57
2021/05/12 08:41:47;;;;;;;1.05;0.43;;;;;;;;;;5055041;28;20032;-59
2021/05/12 08:44:14;;;;;;;2.60;0.50;;;;;;;;;;5054616;28;20104;-58
2021/05/12 08:46:41;;;;;;;2.53;0.60;;;;;;;;;;5054883;28;20426;-59
2021/05/12 08:49:09;;;;;;;1.60;0.50;;;;;;;;;;5054638;28;20091;-58
2021/05/12 08:51:37;;;;;;;2.47;0.50;;;;;;;;;;5054866;28;20063;-59
2021/05/12 08:54:05;;;;;;;1.92;0.50;;;;;;;;;;5054312;28;20031;-58
2021/05/12 08:56:32;;;;;;;2.30;0.50;;;;;;;;;;5054619;28;20096;-60
2021/05/12 08:59:01;;;;;;;2.03;0.60;;;;;;;;;;5054368;28;20599;-60
2021/05/12 09:01:28;;;;;;;2.05;0.60;;;;;;;;;;5054655;28;20029;-61
2021/05/12 09:03:57;;;;;;;1.38;0.60;;;;;;;;;;5054183;28;20116;-62
2021/05/12 09:06:25;;;;;;;1.92;0.45;;;;;;;;;;5054761;28;20531;-59
2021/05/12 09:08:52;;;;;;;4.05;0.40;;;;;;;;;;5054819;28;20457;-58
2021/05/12 09:11:19;;;;;;;1.83;0.73;;;;;;;;;;5053879;28;20021;-59
2021/05/12 09:13:49;;;;;;;1.35;0.57;;;;;;;;;;5054537;28;20025;-59
2021/05/12 09:16:19;;;;;;;2.05;0.68;;;;;;;;;;5053794;28;20029;-63
2021/05/12 09:18:47;;;;;;;1.08;0.47;;;;;;;;;;5036533;28;20025;-64
2021/05/12 09:21:15;;;;;;;1.10;0.43;;;;;;;;;;5053319;28;20037;-60
2021/05/12 09:23:43;;;;;;;0.82;0.50;;;;;;;;;;5054072;28;20055;-62
2021/05/12 09:26:17;;;;;;;1.05;0.40;;;;;;;;;;5053034;28;20041;-63
2021/05/12 09:28:44;;;;;;;1.50;0.50;;;;;;;;;;5052971;28;20028;-63
2021/05/12 09:31:17;;;;;;;0.63;0.30;;;;;;;;;;5052543;28;20112;-63
2021/05/12 09:33:49;;;;;;;4.75;0.65;;;;;;;;;;5053898;28;20026;-63
2021/05/12 09:36:29;;;;;;;2.58;0.40;;;;;;;;;;5054282;28;20033;-64
2021/05/12 09:38:57;;;;;;;2.13;0.68;;;;;;;;;;5053487;28;20041;-60
2021/05/12 09:41:37;;;;;;;2.58;0.75;;;;;;;;;;5053759;28;20021;-59
2021/05/12 09:44:06;;;;;;;2.90;0.68;;;;;;;;;;5052381;28;20033;-63
2021/05/12 09:46:34;;;;;;;1.30;0.50;;;;;;;;;;5053694;28;20492;-63
2021/05/12 09:49:01;;;;;;;1.38;0.55;;;;;;;;;;5053319;28;20060;-63
2021/05/12 09:51:29;;;;;;;2.47;0.50;;;;;;;;;;5053799;28;20028;-63
2021/05/12 09:54:10;;;;;;;1.73;0.60;;;;;;;;;;5053375;28;20104;-62
2021/05/12 09:56:48;;;;;;;1.58;0.40;;;;;;;;;;5053640;28;20108;-65
2021/05/12 09:59:35;;;;;;;3.95;0.50;;;;;;;;;;5056540;28;20051;-55
2021/05/12 10:02:03;;;;;;;3.22;0.52;;;;;;;;;;5070595;28;20028;-58
2021/05/12 10:04:36;;;;;;;2.88;0.60;;;;;;;;;;5053404;28;20480;-59
2021/05/12 10:07:23;;;;;;;3.30;0.52;;;;;;;;;;5053498;28;20029;-59
2021/05/12 10:09:51;;;;;;;3.33;0.50;;;;;;;;;;5052877;28;20021;-59
2021/05/12 10:12:29;;;;;;;4.30;0.50;;;;;;;;;;5053268;28;20028;-60
2021/05/12 10:14:57;;;;;;;3.53;0.47;;;;;;;;;;5052712;28;20697;-62
2021/05/12 10:17:24;;;;;;;4.38;0.52;;;;;;;;;;5053420;28;20025;-62
2021/05/12 10:19:52;;;;;;;6.25;0.57;;;;;;;;;;5058771;28;20037;-62
2021/05/12 10:22:20;;;;;;;1.33;0.40;;;;;;;;;;5058706;28;20040;-61
2021/05/12 10:24:52;;;;;;;1.75;0.40;;;;;;;;;;5052504;28;20055;-62
2021/05/12 10:27:19;;;;;;;3.40;0.85;;;;;;;;;;5053215;28;20021;-61
2021/05/12 10:29:51;;;;;;;9.23;0.50;;;;;;;;;;5055741;28;20020;-62
2021/05/12 10:32:23;;;;;;;3.72;0.50;;;;;;;;;;5061290;28;20017;-52
2021/05/12 10:35:00;;;;;;;12.88;1.00;;;;;;;;;;5062250;28;20039;-60
2021/05/12 10:37:28;;;;;;;1.45;0.50;;;;;;;;;;5072020;28;20112;-57
2021/05/12 10:40:02;;;;;;;3.45;0.60;;;;;;;;;;5072421;28;20032;-58
2021/05/12 10:43:00;;;;;;;5.68;0.93;;;;;;;;;;5068834;28;20017;-60
2021/05/12 10:45:36;;;;;;;7.75;0.60;;;;;;;;;;5064005;28;20383;-59
2021/05/12 10:48:04;;;;;;;5.68;0.95;;;;;;;;;;5051882;28;20108;-55
2021/05/12 10:50:44;;;;;;;2.50;0.60;;;;;;;;;;5068191;28;20060;-54
2021/05/12 10:53:21;;;;;;;6.07;0.80;;;;;;;;;;5049752;28;20025;-59
2021/05/12 10:55:58;;;;;;;6.78;0.63;;;;;;;;;;5050650;28;20021;-60
2021/05/12 10:58:29;;;;;;;7.78;0.85;;;;;;;;;;5050846;28;20090;-62
2021/05/12 11:01:00;;;;;;;7.32;0.88;;;;;;;;;;5052230;28;20601;-60
2021/05/12 11:03:47;;;;;;;3.53;0.93;;;;;;;;;;5051228;28;20029;-68
2021/05/12 11:06:14;;;;;;;5.38;0.63;;;;;;;;;;5049480;28;20025;-60
2021/05/12 11:08:59;;;;;;;4.40;0.80;;;;;;;;;;5050996;28;20111;-62
2021/05/12 11:11:26;;;;;;;6.65;1.13;;;;;;;;;;5051939;28;20362;-61
2021/05/12 11:14:13;;;;;;;8.85;0.88;;;;;;;;;;5051048;28;20029;-62
2021/05/12 11:17:00;;;;;;;7.47;0.77;;;;;;;;;;5053989;28;20040;-61
2021/05/12 11:19:48;;;;;;;8.13;1.00;;;;;;;;;;5063459;28;20039;-61
2021/05/12 11:33:12;;;;;;;21.38;1.75;;;;;;;;;;5054743;28;20079;-61
2021/05/12 11:35:45;;;;;;;5.72;0.82;;;;;;;;;;5050958;28;20017;-66
2021/05/12 11:38:19;;;;;;;4.53;0.80;;;;;;;;;;5050861;28;20469;-65
2021/05/12 11:41:06;;;;;;;4.80;1.23;;;;;;;;;;5052922;28;20040;-62
2021/05/12 11:43:36;;;;;;;3.95;0.70;;;;;;;;;;5053525;28;20378;-71
2021/05/12 11:46:27;;;;;;;3.38;1.00;;;;;;;;;;5054882;28;20021;-64
2021/05/12 11:48:58;;;;;;;4.90;0.70;;;;;;;;;;5047458;28;20029;-68
2021/05/12 11:51:25;;;;;;;6.88;1.42;;;;;;;;;;5063907;28;20025;-61
2021/05/12 11:53:53;;;;;;;4.75;0.90;;;;;;;;;;5055093;28;20040;-64
2021/05/12 11:56:20;;;;;;;7.15;1.15;;;;;;;;;;5054270;28;20032;-65
2021/05/12 11:58:57;;;;;;;5.95;0.65;;;;;;;;;;5055140;28;20036;-66
2021/05/12 12:01:25;;;;;;;5.85;0.85;;;;;;;;;;5068235;28;20021;-60
2021/05/12 12:03:59;;;;;;;3.45;0.90;;;;;;;;;;5063272;28;20025;-64
2021/05/12 12:06:26;;;;;;;11.55;1.08;;;;;;;;;;5052163;28;20029;-62
2021/05/12 12:08:53;;;;;;;12.00;1.17;;;;;;;;;;5056804;28;20032;-59
2021/05/12 12:11:21;;;;;;;9.60;1.42;;;;;;;;;;5069995;28;20488;-60
2021/05/12 12:13:57;;;;;;;7.38;1.23;;;;;;;;;;5062360;28;20032;-59
2021/05/12 12:16:25;;;;;;;8.52;1.17;;;;;;;;;;5064109;28;20063;-60
2021/05/12 12:18:52;;;;;;;7.35;1.13;;;;;;;;;;5064015;28;20100;-60
2021/05/12 12:21:32;;;;;;;9.43;1.40;;;;;;;;;;5063324;28;20026;-60
2021/05/12 12:24:12;;;;;;;8.77;1.70;;;;;;;;;;5067484;28;20036;-68
2021/05/12 12:26:41;;;;;;;8.25;1.08;;;;;;;;;;5057043;28;20036;-64
2021/05/12 12:29:08;;;;;;;7.65;1.17;;;;;;;;;;5058851;28;20127;-63
2021/05/12 12:31:46;;;;;;;4.38;1.13;;;;;;;;;;5056178;28;20021;-65
2021/05/12 12:34:23;;;;;;;6.10;0.90;;;;;;;;;;5064559;28;20021;-59
2021/05/12 12:37:02;;;;;;;3.58;0.90;;;;;;;;;;5063962;28;20021;-61
2021/05/12 12:39:56;;;;;;;3.95;0.77;;;;;;;;;;5054286;28;20041;-62
2021/05/12 12:42:34;;;;;;;4.90;1.00;;;;;;;;;;5056283;28;20024;-66
2021/05/12 12:45:02;;;;;;;8.00;1.10;;;;;;;;;;5062350;28;20017;-60
2021/05/12 12:47:29;;;;;;;5.22;1.13;;;;;;;;;;5063331;28;20021;-61
2021/05/12 12:50:06;;;;;;;4.80;0.85;;;;;;;;;;5064328;28;20028;-60
2021/05/12 12:52:33;;;;;;;2.85;0.75;;;;;;;;;;5070152;28;20028;-61
2021/05/12 12:55:13;;;;;;;5.13;0.80;;;;;;;;;;5066305;28;20016;-61
2021/05/12 12:58:03;;;;;;;4.40;0.95;;;;;;;;;;5056856;28;20033;-60
2021/05/12 13:00:31;;;;;;;10.30;1.30;;;;;;;;;;5046145;28;20103;-68
2021/05/12 13:03:02;;;;;;;7.72;1.52;;;;;;;;;;5061948;28;20036;-67
2021/05/12 13:05:36;;;;;;;5.47;0.77;;;;;;;;;;5061607;28;20021;-67
2021/05/12 13:08:17;;;;;;;5.90;0.85;;;;;;;;;;5065161;28;20025;-67
2021/05/12 13:10:44;;;;;;;4.57;1.17;;;;;;;;;;5063812;28;20054;-70
2021/05/12 13:13:26;;;;;;;10.20;1.35;;;;;;;;;;5063955;28;20021;-63
2021/05/12 13:15:54;;;;;;;6.85;0.98;;;;;;;;;;5059450;28;20100;-65
2021/05/12 13:18:26;;;;;;;8.15;0.95;;;;;;;;;;5051406;28;20033;-67
2021/05/12 13:20:53;;;;;;;8.32;1.30;;;;;;;;;;5053578;28;20036;-60
2021/05/12 13:23:24;;;;;;;7.97;1.17;;;;;;;;;;5053890;28;20049;-71
2021/05/12 13:25:52;;;;;;;7.20;1.10;;;;;;;;;;5053756;28;20384;-66
2021/05/12 13:28:20;;;;;;;5.15;1.15;;;;;;;;;;5058791;28;20048;-70
2021/05/12 13:30:47;;;;;;;6.30;1.00;;;;;;;;;;5069136;28;20032;-71
2021/05/12 13:33:15;;;;;;;8.27;0.98;;;;;;;;;;5066487;28;20015;-70
2021/05/12 13:35:42;;;;;;;5.05;0.80;;;;;;;;;;5063934;28;20094;-64
2021/05/12 13:38:10;;;;;;;6.38;1.10;;;;;;;;;;5065014;28;20024;-64
2021/05/12 13:40:37;;;;;;;11.90;1.42;;;;;;;;;;5060598;28;20032;-61
2021/05/12 13:43:04;;;;;;;8.93;1.00;;;;;;;;;;5052462;28;20021;-61
2021/05/12 13:45:32;;;;;;;4.80;1.00;;;;;;;;;;5058338;28;20040;-67
2021/05/12 13:47:59;;;;;;;5.75;0.90;;;;;;;;;;5064319;28;20502;-65
2021/05/12 13:50:32;;;;;;;7.22;1.13;;;;;;;;;;5065495;28;20029;-66
2021/05/12 13:53:13;;;;;;;;;;;;;;;;;;5069427;28;20389;-63
2021/05/12 14:03:31;;;;;;;6.10;0.82;;;;;;;;;;5055530;28;20082;-61
2021/05/12 14:05:58;;;;;;;5.10;1.30;;;;;;;;;;5057616;28;20016;-63
2021/05/12 14:08:25;;;;;;;8.82;1.10;;;;;;;;;;5057938;28;20497;-61
2021/05/12 14:10:52;;;;;;;4.60;1.02;;;;;;;;;;5064057;28;20544;-72
2021/05/12 14:13:25;;;;;;;8.68;1.10;;;;;;;;;;5055124;28;20021;-63
2021/05/12 14:18:30;;;;;;;4.22;1.10;;;;;;;;;;5057245;28;20037;-64
2021/05/12 14:20:58;;;;;;;3.38;0.80;;;;;;;;;;5055216;28;20025;-68
2021/05/12 14:23:25;;;;;;;7.90;1.25;;;;;;;;;;5067532;28;20041;-67
2021/05/12 14:25:52;;;;;;;9.00;1.10;;;;;;;;;;5052541;28;20036;-68
2021/05/12 14:28:27;;;;;;;6.85;1.38;;;;;;;;;;5062021;28;20056;-71
2021/05/12 14:30:55;;;;;;;9.18;1.23;;;;;;;;;;5062618;28;20035;-68
2021/05/12 14:33:22;;;;;;;7.15;1.35;;;;;;;;;;5066451;28;20059;-63
2021/05/12 14:35:49;;;;;;;12.02;1.35;;;;;;;;;;5072017;28;20032;-64
2021/05/12 14:38:17;;;;;;;5.03;1.23;;;;;;;;;;5066170;28;20021;-63
2021/05/12 14:40:44;;;;;;;7.47;1.50;;;;;;;;;;5047786;28;20572;-63
2021/05/12 14:43:10;;;;;;;9.30;1.25;;;;;;;;;;5050977;28;20166;-62
2021/05/12 14:45:38;;;;;;;3.97;1.30;;;;;;;;;;5053182;28;20028;-63
2021/05/12 14:48:07;;;;;;;2.08;1.02;;;;;;;;;;5061179;28;20103;-64
2021/05/12 14:50:35;;;;;;;9.98;1.42;;;;;;;;;;5071693;28;20024;-64
2021/05/12 14:53:38;;;;;;;6.28;1.17;;;;;;;;;;5066475;28;20469;-68
2021/05/12 14:56:10;;;;;;;7.40;1.40;;;;;;;;;;5069502;28;20021;-68
2021/05/12 15:06:46;;;;;;;8.50;1.55;;;;;;;;;;5071511;28;20070;-62
2021/05/12 15:09:13;;;;;;;8.57;1.40;;;;;;;;;;5071924;28;20107;-61
2021/05/12 15:11:40;;;;;;;6.38;1.23;;;;;;;;;;5070807;28;20468;-63
2021/05/12 15:14:07;;;;;;;4.15;1.08;;;;;;;;;;5065790;28;20017;-61
2021/05/12 15:16:34;;;;;;;3.95;1.00;;;;;;;;;;5059183;28;20028;-61
2021/05/12 15:19:01;;;;;;;10.40;1.20;;;;;;;;;;5060558;28;20025;-62
2021/05/12 15:21:28;;;;;;;4.65;1.10;;;;;;;;;;5062250;28;20024;-63